Time;durP1;ratioP1;P1;durP2;ratioP2;P2;SDS_P1;SDS_P2;PMS_P1;PMS_P2;Temp;Humidity;BMP_temperature;BMP_pressure;BME280_temperature;BME280_humidity;BME280_pressure;Samples;Min_cycle;Max_cycle;Signal;HPM_P1;HPM_P2
2023/01/04 00:00:33;;;;;;;;;;;;;;;0.07;87.29;98325.75;4924715;29;19939;-66
2023/01/04 00:02:59;;;;;;;;;;;;;;;0.07;87.10;98337.31;4927608;29;20034;-67
2023/01/04 00:05:26;;;;;;;;;;;;;;;0.12;87.01;98328.53;4926317;29;20045;-65
2023/01/04 00:07:51;;;;;;;;;;;;;;;0.17;87.06;98320.53;4926506;29;19930;-65
2023/01/04 00:10:17;;;;;;;;;;;;;;;0.22;86.74;98341.34;4928660;29;20001;-65
2023/01/04 00:12:43;;;;;;;;;;;;;;;0.25;86.41;98338.97;4929508;29;20366;-66
2023/01/04 00:15:09;;;;;;;;;;;;;;;0.27;85.55;98334.19;4929687;29;20017;-65
2023/01/04 00:17:35;;;;;;;;;;;;;;;0.30;85.12;98351.69;4928279;29;19935;-65
2023/01/04 00:20:00;;;;;;;;;;;;;;;0.30;85.11;98361.63;4926154;29;19931;-65
2023/01/04 00:22:27;;;;;;;;;;;;;;;0.27;84.91;98352.16;4928316;29;20454;-65
2023/01/04 00:24:53;;;;;;;;;;;;;;;0.30;85.01;98370.50;4924145;29;19930;-65
2023/01/04 00:27:19;;;;;;;;;;;;;;;0.32;84.74;98368.41;4926093;29;20041;-65
2023/01/04 00:30:03;;;;;;;;;;;;;;;0.31;84.60;98365.94;4930118;29;19937;-65
2023/01/04 00:32:30;;;;;;;;;;;;;;;0.31;84.58;98366.75;4928639;29;20394;-65
2023/01/04 00:34:56;;;;;;;;;;;;;;;0.28;84.36;98376.13;4927218;29;19931;-70
2023/01/04 00:37:21;;;;;;;;;;;;;;;0.22;84.74;98381.66;4909645;29;20391;-70
2023/01/04 00:39:48;;;;;;;;;;;;;;;0.19;85.01;98385.63;4926750;29;20462;-70
2023/01/04 00:42:14;;;;;;;;;;;;;;;0.21;85.08;98383.53;4928586;28;19977;-70
2023/01/04 00:44:40;;;;;;;;;;;;;;;0.19;85.12;98385.63;4927939;29;20360;-70
2023/01/04 00:47:06;;;;;;;;;;;;;;;0.26;85.56;98407.00;4924561;29;19997;-70
2023/01/04 00:49:31;;;;;;;;;;;;;;;0.32;85.78;98397.16;4927159;29;19973;-70
2023/01/04 00:51:57;;;;;;;;;;;;;;;0.12;86.38;98399.22;4926239;29;19969;-70
2023/01/04 00:54:23;;;;;;;;;;;;;;;-0.12;87.01;98427.25;4945109;28;19931;-70
2023/01/04 00:56:51;;;;;;;;;;;;;;;-0.22;87.56;98441.31;4944148;28;19934;-70
2023/01/04 00:59:17;;;;;;;;;;;;;;;-0.25;86.57;98447.97;4943208;28;19930;-70
2023/01/04 01:01:43;;;;;;;;;;;;;;;-0.28;85.71;98443.06;4945591;28;20032;-69
2023/01/04 01:04:10;;;;;;;;;;;;;;;-0.40;82.88;98464.56;4945997;28;20041;-70
2023/01/04 01:06:36;;;;;;;;;;;;;;;-0.55;81.24;98481.16;4947279;28;19937;-69
2023/01/04 01:09:02;;;;;;;;;;;;;;;-0.66;80.91;98496.22;4945973;28;19930;-70
2023/01/04 01:11:28;;;;;;;;;;;;;;;-0.75;80.60;98502.97;4933901;28;20029;-70
2023/01/04 01:13:56;;;;;;;;;;;;;;;-0.89;78.42;98513.13;4940620;28;20410;-70
2023/01/04 01:16:23;;;;;;;;;;;;;;;-1.07;77.81;98519.38;4931894;29;19941;-70
2023/01/04 01:18:49;;;;;;;;;;;;;;;-1.20;77.46;98529.28;4933011;29;20060;-70
2023/01/04 01:21:15;;;;;;;;;;;;;;;-1.27;77.81;98527.72;4932573;29;19939;-70
2023/01/04 01:23:42;;;;;;;;;;;;;;;-1.37;77.42;98545.22;4929496;29;19930;-71
2023/01/04 01:26:11;;;;;;;;;;;;;;;-1.45;77.76;98554.38;4943204;28;20402;-70
2023/01/04 01:28:37;;;;;;;;;;;;;;;-1.45;77.65;98558.91;4949127;28;20414;-70
2023/01/04 01:31:08;;;;;;;;;;;;;;;-1.48;78.12;98562.88;4948126;28;20331;-66
2023/01/04 01:33:35;;;;;;;;;;;;;;;-1.51;78.68;98566.00;4947842;28;19934;-65
2023/01/04 01:36:01;;;;;;;;;;;;;;;-1.49;79.10;98569.25;4936254;28;19930;-66
2023/01/04 01:38:29;;;;;;;;;;;;;;;-1.54;78.30;98566.44;4930245;29;20038;-65
2023/01/04 01:40:55;;;;;;;;;;;;;;;-1.62;77.22;98583.66;4928753;29;20406;-66
2023/01/04 01:43:22;;;;;;;;;;;;;;;-1.67;76.65;98588.06;4929792;29;19977;-66
2023/01/04 01:45:48;;;;;;;;;;;;;;;-1.72;76.00;98600.28;4935346;29;19978;-66
2023/01/04 01:48:17;;;;;;;;;;;;;;;-1.78;75.64;98606.53;4949326;28;20033;-66
2023/01/04 01:50:46;;;;;;;;;;;;;;;-1.94;75.25;98597.22;4935855;28;19930;-66
2023/01/04 01:53:12;;;;;;;;;;;;;;;-1.90;75.46;98622.53;4931321;29;19938;-66
2023/01/04 01:55:38;;;;;;;;;;;;;;;-1.93;75.88;98631.00;4930115;29;19931;-66
2023/01/04 01:58:06;;;;;;;;;;;;;;;-1.93;76.24;98643.59;4944265;28;19931;-66
2023/01/04 02:00:32;;;;;;;;;;;;;;;-1.95;76.65;98646.50;4932505;29;19962;-66
2023/01/04 02:03:12;;;;;;;;;;;;;;;-1.93;76.90;98651.66;4927458;29;19966;-66
2023/01/04 02:05:39;;;;;;;;;;;;;;;-1.95;77.33;98672.44;4927564;29;19931;-66
2023/01/04 02:08:06;;;;;;;;;;;;;;;-2.02;77.12;98684.06;4930975;29;20013;-66
2023/01/04 02:10:32;;;;;;;;;;;;;;;-2.01;77.42;98696.41;4932059;29;20022;-66
2023/01/04 02:12:59;;;;;;;;;;;;;;;-2.00;77.51;98697.25;4927995;29;20037;-66
2023/01/04 02:15:26;;;;;;;;;;;;;;;-2.01;77.20;98707.13;4928595;29;20347;-69
2023/01/04 02:17:55;;;;;;;;;;;;;;;-2.01;76.63;98709.00;4929799;28;20017;-66
2023/01/04 02:20:30;;;;;;;;;;;;;;;-2.07;76.59;98723.25;4928474;29;20395;-66
2023/01/04 02:23:17;;;;;;;;;;;;;;;-2.09;76.88;98731.53;4931372;29;19960;-66
2023/01/04 02:25:52;;;;;;;;;;;;;;;-2.11;76.51;98746.19;4930648;29;19927;-66
2023/01/04 02:28:25;;;;;;;;;;;;;;;-2.15;76.37;98754.66;4930391;29;20021;-66
2023/01/04 02:31:12;;;;;;;;;;;;;;;-2.14;76.71;98767.00;4927960;29;19937;-66
2023/01/04 02:33:42;;;;;;;;;;;;;;;-2.09;76.99;98770.88;4929584;29;19931;-65
2023/01/04 02:36:13;;;;;;;;;;;;;;;-2.10;77.05;98772.75;4946454;28;20017;-66
2023/01/04 02:38:45;;;;;;;;;;;;;;;-2.10;76.98;98782.63;4962655;28;20029;-66
2023/01/04 02:41:15;;;;;;;;;;;;;;;-2.11;76.62;98767.59;4929747;29;19930;-65
2023/01/04 02:46:33;;;;;;;;;;;;;;;-2.22;76.60;98807.44;4926722;29;19931;-71
2023/01/04 02:51:44;;;;;;;;;;;;;;;-2.20;76.90;98808.03;4943787;28;19981;-70
2023/01/04 02:54:12;;;;;;;;;;;;;;;-2.21;77.00;98822.47;4929678;29;19989;-71
2023/01/04 02:56:48;;;;;;;;;;;;;;;-2.23;76.99;98821.84;4927914;29;19931;-71
2023/01/04 02:59:20;;;;;;;;;;;;;;;-2.30;76.93;98839.84;4925862;29;20426;-71
2023/01/04 03:07:25;;;;;;;;;;;;;;;-2.39;76.81;98841.09;4930896;29;19937;-70
2023/01/04 03:09:55;;;;;;;;;;;;;;;-2.43;76.89;98875.50;4931415;29;19937;-70
2023/01/04 03:12:31;;;;;;;;;;;;;;;-2.49;77.25;98852.28;4930564;29;19937;-66
2023/01/04 03:15:00;;;;;;;;;;;;;;;-2.40;76.91;98880.47;4930115;29;19931;-66
2023/01/04 03:17:31;;;;;;;;;;;;;;;-2.44;76.95;98887.25;4931750;29;19950;-65
2023/01/04 03:19:57;;;;;;;;;;;;;;;-2.44;77.27;98904.16;4928381;29;19938;-65
2023/01/04 03:36:19;;;;;;;;;;;;;;;-2.50;77.27;98933.63;4929247;29;19938;-70
2023/01/04 03:49:59;;;;;;;;;;;;;;;-2.51;76.26;98967.59;4927293;29;19942;-69
2023/01/04 03:52:27;;;;;;;;;;;;;;;-2.49;75.89;98965.56;4927974;29;20033;-69
2023/01/04 03:54:55;;;;;;;;;;;;;;;-2.50;75.66;98971.91;4939819;28;20302;-69
2023/01/04 03:57:21;;;;;;;;;;;;;;;-2.51;75.88;98983.66;4947380;28;20024;-71
2023/01/04 03:59:49;;;;;;;;;;;;;;;-2.50;75.82;98982.63;4946251;28;20334;-70
2023/01/04 04:02:18;;;;;;;;;;;;;;;-2.50;75.52;99006.72;4947193;28;19941;-70
2023/01/04 04:10:14;;;;;;;;;;;;;;;-2.46;75.68;99015.16;4946271;28;19937;-70
2023/01/04 04:12:40;;;;;;;;;;;;;;;-2.47;75.92;99018.88;4948231;28;19930;-70
2023/01/04 04:15:06;;;;;;;;;;;;;;;-2.70;76.05;98990.72;4944564;28;19930;-70
2023/01/04 04:17:31;;;;;;;;;;;;;;;-2.49;76.23;99004.88;4930169;29;19930;-70
2023/01/04 04:19:57;;;;;;;;;;;;;;;-2.50;76.53;99019.31;4930703;29;19937;-70
2023/01/04 04:22:23;;;;;;;;;;;;;;;-2.51;76.53;99025.69;4925889;29;19954;-70
2023/01/04 04:24:50;;;;;;;;;;;;;;;-2.52;76.99;99032.09;4928966;29;20462;-70
2023/01/04 04:27:15;;;;;;;;;;;;;;;-2.54;76.96;99044.84;4927091;29;20034;-70
2023/01/04 04:29:41;;;;;;;;;;;;;;;-2.53;77.31;99049.19;4926776;29;19962;-70
2023/01/04 04:32:07;;;;;;;;;;;;;;;-2.51;77.37;99050.59;4926283;29;19953;-70
2023/01/04 04:34:33;;;;;;;;;;;;;;;-2.51;77.41;99055.94;4928590;29;19938;-70
2023/01/04 04:36:58;;;;;;;;;;;;;;;-2.48;77.57;99050.19;4931526;29;20029;-70
2023/01/04 04:39:24;;;;;;;;;;;;;;;-2.51;77.51;99061.31;4935429;28;19941;-70
2023/01/04 04:41:51;;;;;;;;;;;;;;;-2.51;77.63;99057.81;4948362;28;19938;-70
2023/01/04 04:44:18;;;;;;;;;;;;;;;-2.53;77.85;99059.88;4947153;28;19931;-70
2023/01/04 04:46:44;;;;;;;;;;;;;;;-2.55;77.85;99073.47;4944859;28;19978;-70
2023/01/04 04:49:10;;;;;;;;;;;;;;;-2.57;77.74;99076.38;4944320;28;19977;-70
2023/01/04 04:51:36;;;;;;;;;;;;;;;-2.59;77.66;99086.44;4944887;28;19931;-69
2023/01/04 04:54:02;;;;;;;;;;;;;;;-2.55;77.98;99094.88;4942464;28;20006;-70
2023/01/04 04:56:28;;;;;;;;;;;;;;;-2.55;77.74;99097.56;4946693;28;19953;-70
2023/01/04 04:58:55;;;;;;;;;;;;;;;-2.57;77.78;99107.66;4943052;28;20479;-70
2023/01/04 05:01:21;;;;;;;;;;;;;;;-2.59;78.13;99121.22;4946274;28;20358;-70
2023/01/04 05:03:46;;;;;;;;;;;;;;;-2.57;78.29;99119.19;4946538;28;19953;-69
2023/01/04 05:06:12;;;;;;;;;;;;;;;-2.55;78.07;99112.81;4947798;28;19953;-70
2023/01/04 05:08:38;;;;;;;;;;;;;;;-2.61;77.66;99122.50;4938891;28;19938;-70
2023/01/04 05:11:05;;;;;;;;;;;;;;;-2.67;77.39;99116.09;4925015;29;19974;-70
2023/01/04 05:13:31;;;;;;;;;;;;;;;-2.68;77.62;99141.22;4928273;28;20334;-70
2023/01/04 05:15:58;;;;;;;;;;;;;;;-2.66;77.47;99139.16;4930093;28;20300;-70
2023/01/04 05:18:23;;;;;;;;;;;;;;;-2.66;77.95;99147.19;4935532;29;20244;-69
2023/01/04 05:20:49;;;;;;;;;;;;;;;-2.66;78.19;99147.19;4942238;28;19934;-70
2023/01/04 05:23:16;;;;;;;;;;;;;;;-2.65;78.13;99143.47;4947352;28;20383;-70
2023/01/04 05:25:42;;;;;;;;;;;;;;;-2.63;78.31;99159.34;4946984;28;20033;-70
2023/01/04 05:28:08;;;;;;;;;;;;;;;-2.62;78.43;99159.13;4944560;28;20034;-70
2023/01/04 05:33:21;;;;;;;;;;;;;;;-2.62;78.31;99169.84;4946098;28;19930;-70
2023/01/04 05:35:47;;;;;;;;;;;;;;;-2.64;78.34;99181.78;4945028;28;20334;-70
2023/01/04 05:38:13;;;;;;;;;;;;;;;-2.67;78.31;99183.00;4942568;28;19934;-71
2023/01/04 05:40:39;;;;;;;;;;;;;;;-2.68;77.99;99183.19;4945319;28;19938;-70
2023/01/04 05:43:04;;;;;;;;;;;;;;;-2.75;77.82;99189.38;4945884;28;19930;-70
2023/01/04 05:45:30;;;;;;;;;;;;;;;-2.80;77.61;99199.88;4944966;28;19930;-71
2023/01/04 05:47:56;;;;;;;;;;;;;;;-2.83;77.94;99219.00;4942872;28;19941;-70
2023/01/04 05:50:23;;;;;;;;;;;;;;;-2.87;77.74;99221.25;4946776;29;19931;-70
2023/01/04 05:52:49;;;;;;;;;;;;;;;-2.90;77.46;99224.31;4926884;29;19942;-69
2023/01/04 05:55:15;;;;;;;;;;;;;;;-2.91;77.35;99229.88;4924883;29;19935;-70
2023/01/04 05:57:40;;;;;;;;;;;;;;;-2.90;77.50;99236.88;4925778;29;19931;-70
2023/01/04 06:00:07;;;;;;;;;;;;;;;-2.90;77.00;99239.56;4928651;29;19978;-69
2023/01/04 06:02:42;;;;;;;;;;;;;;;-2.94;76.70;99219.59;4941826;28;19934;-69
2023/01/04 06:05:09;;;;;;;;;;;;;;;-3.01;75.71;99238.28;4948322;28;19977;-69
2023/01/04 06:07:36;;;;;;;;;;;;;;;-3.05;75.02;99245.03;4949865;28;20040;-69
2023/01/04 06:10:02;;;;;;;;;;;;;;;-3.07;74.38;99249.78;4948839;28;20402;-69
2023/01/04 06:12:28;;;;;;;;;;;;;;;-3.11;74.54;99256.56;4944322;28;19938;-69
2023/01/04 06:14:54;;;;;;;;;;;;;;;-3.13;74.83;99257.56;4948809;28;19934;-69
2023/01/04 06:17:21;;;;;;;;;;;;;;;-3.09;74.69;99255.34;4945443;28;20411;-69
2023/01/04 06:19:47;;;;;;;;;;;;;;;-3.09;74.96;99255.34;4951651;28;19941;-70
2023/01/04 06:22:13;;;;;;;;;;;;;;;-3.09;74.56;99270.53;4951320;28;19966;-70
2023/01/04 06:24:40;;;;;;;;;;;;;;;-3.11;74.49;99272.59;4947641;28;19931;-70
2023/01/04 06:27:06;;;;;;;;;;;;;;;-3.10;74.63;99271.56;4946582;28;19938;-70
2023/01/04 06:29:32;;;;;;;;;;;;;;;-3.14;74.99;99287.19;4947704;28;19985;-70
2023/01/04 06:31:57;;;;;;;;;;;;;;;-3.15;75.24;99289.06;4946799;28;19938;-70
2023/01/04 06:34:23;;;;;;;;;;;;;;;-3.17;75.00;99298.28;4947131;28;19941;-69
2023/01/04 06:36:49;;;;;;;;;;;;;;;-3.18;75.19;99300.16;4948173;28;20294;-70
2023/01/04 06:39:14;;;;;;;;;;;;;;;-3.17;75.37;99299.13;4946207;28;19961;-69
2023/01/04 06:41:42;;;;;;;;;;;;;;;-3.14;75.41;99312.09;4947733;28;19974;-70
2023/01/04 06:44:07;;;;;;;;;;;;;;;-3.10;75.15;99312.53;4946142;28;19997;-69
2023/01/04 06:46:33;;;;;;;;;;;;;;;-3.11;75.23;99321.59;4949737;28;20201;-69
2023/01/04 06:48:59;;;;;;;;;;;;;;;-3.09;75.30;99313.34;4945904;28;20076;-70
2023/01/04 06:51:24;;;;;;;;;;;;;;;-3.10;75.31;99333.09;4948714;28;20048;-70
2023/01/04 06:53:50;;;;;;;;;;;;;;;-3.14;75.49;99338.84;4948285;28;19934;-70
2023/01/04 06:56:16;;;;;;;;;;;;;;;-3.13;75.60;99335.16;4935706;28;19953;-70
2023/01/04 06:58:43;;;;;;;;;;;;;;;-3.09;75.64;99342.78;4929161;29;19938;-69
2023/01/04 07:01:09;;;;;;;;;;;;;;;-3.08;75.71;99347.09;4928358;29;19931;-70
2023/01/04 07:03:34;;;;;;;;;;;;;;;-3.04;75.86;99351.88;4927318;29;19990;-70
2023/01/04 07:06:02;;;;;;;;;;;;;;;-2.99;75.92;99356.63;4927044;29;20382;-70
2023/01/04 07:08:28;;;;;;;;;;;;;;;-2.93;75.91;99358.50;4933103;28;19931;-70
2023/01/04 07:10:54;;;;;;;;;;;;;;;-2.99;75.69;99360.13;4943729;28;19934;-70
2023/01/04 07:13:20;;;;;;;;;;;;;;;-3.05;75.62;99365.44;4947196;28;20032;-70
2023/01/04 07:15:47;;;;;;;;;;;;;;;-3.07;75.22;99367.47;4949164;28;19930;-69
2023/01/04 07:18:13;;;;;;;;;;;;;;;-3.15;74.81;99376.47;4944665;28;19961;-69
2023/01/04 07:20:39;;;;;;;;;;;;;;;-3.22;75.09;99371.06;4946415;28;19962;-71
2023/01/04 07:23:05;;;;;;;;;;;;;;;-3.28;74.31;99377.22;4926812;28;20032;-70
2023/01/04 07:25:30;;;;;;;;;;;;;;;-3.28;73.70;99385.25;4947322;28;19930;-69
2023/01/04 07:27:56;;;;;;;;;;;;;;;-3.31;73.20;99393.66;4943035;28;19934;-69
2023/01/04 07:30:22;;;;;;;;;;;;;;;-3.33;73.45;99399.19;4946650;28;20362;-69
2023/01/04 07:32:50;;;;;;;;;;;;;;;-3.34;73.83;99405.56;4946447;28;19977;-69
2023/01/04 07:35:15;;;;;;;;;;;;;;;-3.32;73.88;99416.06;4946991;28;19941;-70
2023/01/04 07:37:41;;;;;;;;;;;;;;;-3.34;74.06;99418.94;4946050;28;19931;-65
2023/01/04 07:40:08;;;;;;;;;;;;;;;-3.33;74.24;99422.44;4947063;28;19937;-65
2023/01/04 07:42:33;;;;;;;;;;;;;;;-3.29;74.44;99413.81;4948220;28;19934;-65
2023/01/04 07:44:59;;;;;;;;;;;;;;;-3.23;74.02;99425.59;4948323;28;19962;-65
2023/01/04 07:47:26;;;;;;;;;;;;;;;-3.21;73.78;99428.09;4947759;28;19930;-70
2023/01/04 07:49:53;;;;;;;;;;;;;;;-3.22;74.05;99427.25;4946311;28;19930;-70
2023/01/04 07:52:19;;;;;;;;;;;;;;;-3.28;73.96;99426.19;4938376;28;20423;-70
2023/01/04 07:54:44;;;;;;;;;;;;;;;-3.28;74.17;99434.22;4930301;28;19981;-70
2023/01/04 07:57:10;;;;;;;;;;;;;;;-3.25;74.35;99435.66;4928418;29;19930;-69
2023/01/04 07:59:36;;;;;;;;;;;;;;;-3.20;74.60;99438.59;4928706;29;20324;-70
2023/01/04 08:02:02;;;;;;;;;;;;;;;-3.14;74.49;99437.81;4926404;29;19978;-70
2023/01/04 08:04:27;;;;;;;;;;;;;;;-3.19;74.15;99429.56;4926116;29;20011;-70
2023/01/04 08:06:55;;;;;;;;;;;;;;;-3.24;74.45;99439.19;4927987;29;19978;-70
2023/01/04 08:09:20;;;;;;;;;;;;;;;-3.16;74.51;99447.88;4927604;29;20323;-70
2023/01/04 08:11:46;;;;;;;;;;;;;;;-3.09;74.40;99439.06;4924172;29;20472;-70
2023/01/04 08:14:12;;;;;;;;;;;;;;;-3.09;74.16;99449.78;4959166;28;19930;-70
2023/01/04 08:16:39;;;;;;;;;;;;;;;-3.12;74.09;99456.34;4963464;28;19937;-65
2023/01/04 08:19:06;;;;;;;;;;;;;;;-3.11;74.15;99457.16;4964508;28;20451;-66
2023/01/04 08:21:33;;;;;;;;;;;;;;;-3.12;74.08;99459.03;4947828;28;20021;-66
2023/01/04 08:24:01;;;;;;;;;;;;;;;-3.11;74.23;99468.72;4935235;28;20315;-65
2023/01/04 08:26:27;;;;;;;;;;;;;;;-3.12;74.07;99467.06;4964321;28;19993;-66
2023/01/04 08:28:53;;;;;;;;;;;;;;;-3.11;74.08;99473.22;4965274;28;20398;-65
2023/01/04 08:31:22;;;;;;;;;;;;;;;-3.13;73.62;99479.59;4962758;28;19930;-65
2023/01/04 08:33:48;;;;;;;;;;;;;;;-3.18;73.63;99465.13;4926440;29;19931;-65
2023/01/04 08:36:17;;;;;;;;;;;;;;;-3.22;73.58;99480.72;4925158;29;20371;-66
2023/01/04 08:38:43;;;;;;;;;;;;;;;-3.26;73.03;99476.00;4926885;29;19937;-65
2023/01/04 08:41:10;;;;;;;;;;;;;;;-3.32;72.61;99485.59;4924526;29;20021;-66
2023/01/04 08:43:36;;;;;;;;;;;;;;;-3.37;72.70;99477.31;4938900;28;19930;-68
2023/01/04 08:46:03;;;;;;;;;;;;;;;-3.46;72.04;99481.94;4941164;28;20090;-70
2023/01/04 08:48:28;;;;;;;;;;;;;;;-3.47;71.88;99481.13;4946631;28;19937;-70
2023/01/04 08:50:56;;;;;;;;;;;;;;;-3.44;71.58;99479.91;4947455;28;19935;-66
2023/01/04 08:53:22;;;;;;;;;;;;;;;-3.42;71.26;99478.72;4944055;28;19970;-69
2023/01/04 08:55:48;;;;;;;;;;;;;;;-3.43;71.20;99486.94;4943368;28;20001;-69
2023/01/04 08:58:16;;;;;;;;;;;;;;;-3.45;71.24;99486.28;4944826;28;19931;-69
2023/01/04 09:00:41;;;;;;;;;;;;;;;-3.48;70.99;99492.84;4946654;28;20020;-69
2023/01/04 09:03:07;;;;;;;;;;;;;;;-3.50;70.99;99486.88;4946558;28;20021;-70
2023/01/04 09:05:33;;;;;;;;;;;;;;;-3.51;71.13;99487.91;4943228;28;19938;-69
2023/01/04 09:07:58;;;;;;;;;;;;;;;-3.52;71.10;99486.22;4935824;28;19938;-66
2023/01/04 09:10:25;;;;;;;;;;;;;;;-3.53;71.02;99491.78;4925836;29;19930;-65
2023/01/04 09:12:50;;;;;;;;;;;;;;;-3.53;71.11;99494.44;4925578;29;19954;-65
2023/01/04 09:15:18;;;;;;;;;;;;;;;-3.55;71.07;99497.28;4939071;28;19931;-65
2023/01/04 09:17:43;;;;;;;;;;;;;;;-3.55;71.28;99494.63;4596755;28;10000764;-65
2023/01/04 09:20:09;;;;;;;;;;;;;;;-3.53;71.44;99497.94;4924996;28;19931;-65
2023/01/04 09:22:35;;;;;;;;;;;;;;;-3.49;71.42;99498.38;4925749;28;19937;-65
2023/01/04 09:25:01;;;;;;;;;;;;;;;-3.45;71.33;99502.31;4921154;29;19931;-65
2023/01/04 09:27:27;;;;;;;;;;;;;;;-3.42;71.53;99501.97;4923717;29;20381;-65
2023/01/04 09:29:53;;;;;;;;;;;;;;;-3.39;71.43;99496.22;4925596;29;19941;-66
2023/01/04 09:32:20;;;;;;;;;;;;;;;-3.37;71.56;99493.34;4924401;29;20041;-66
2023/01/04 09:34:46;;;;;;;;;;;;;;;-3.36;71.65;99508.38;4933459;29;20294;-70
2023/01/04 09:37:12;;;;;;;;;;;;;;;-3.36;71.45;99509.22;4942861;28;19930;-70
2023/01/04 09:39:37;;;;;;;;;;;;;;;-3.35;71.27;99500.16;4934780;28;19931;-65
2023/01/04 09:42:13;;;;;;;;;;;;;;;-3.39;70.68;99501.56;4926105;29;19937;-65
2023/01/04 09:44:42;;;;;;;;;;;;;;;-3.42;70.43;99496.63;4927482;28;19937;-65
2023/01/04 09:47:11;;;;;;;;;;;;;;;-3.41;70.41;99503.63;4922753;29;20423;-65
2023/01/04 09:49:40;;;;;;;;;;;;;;;-3.34;70.35;99506.38;4925312;29;19931;-65
2023/01/04 09:52:12;;;;;;;;;;;;;;;-3.22;70.34;99504.00;4929057;29;19935;-65
2023/01/04 09:54:41;;;;;;;;;;;;;;;-3.17;70.27;99501.56;4931182;29;20037;-69
2023/01/04 09:57:13;;;;;;;;;;;;;;;-3.14;70.53;99503.84;4929476;29;19986;-66
2023/01/04 09:59:38;;;;;;;;;;;;;;;-3.11;70.62;99503.50;4943518;28;20036;-65
2023/01/04 10:02:10;;;;;;;;;;;;;;;-3.11;70.42;99503.50;4948762;28;19965;-69
2023/01/04 10:04:44;;;;;;;;;;;;;;;-3.13;70.34;99487.63;4930370;29;19931;-69
2023/01/04 10:07:15;;;;;;;;;;;;;;;-3.08;70.29;99492.41;4935668;28;19931;-65
2023/01/04 10:09:41;;;;;;;;;;;;;;;-3.13;70.25;99490.28;4953722;28;19930;-65
2023/01/04 10:12:14;;;;;;;;;;;;;;;-3.11;69.77;99492.78;4959656;28;20212;-65
2023/01/04 10:14:47;;;;;;;;;;;;;;;-3.05;69.47;99489.31;4952877;28;19968;-65
2023/01/04 10:17:16;;;;;;;;;;;;;;;-3.01;69.23;99481.75;4956344;28;19937;-66
2023/01/04 10:19:53;;;;;;;;;;;;;;;-3.00;69.26;99483.41;4961133;28;20362;-66
2023/01/04 10:22:24;;;;;;;;;;;;;;;-3.09;69.31;99461.31;4953666;28;19929;-66
2023/01/04 10:24:56;;;;;;;;;;;;;;;-2.99;69.13;99480.50;4946521;28;20533;-66
2023/01/04 10:27:27;;;;;;;;;;;;;;;-3.01;68.66;99482.56;4948856;28;20272;-65
2023/01/04 10:30:00;;;;;;;;;;;;;;;-3.14;67.74;99480.63;4951298;28;19930;-68
2023/01/04 10:32:31;;;;;;;;;;;;;;;-3.20;67.92;99480.56;4956417;28;19937;-65
2023/01/04 10:34:59;;;;;;;;;;;;;;;-3.20;68.16;99488.56;4950612;28;20287;-65
2023/01/04 10:37:29;;;;;;;;;;;;;;;-3.23;67.93;99479.09;4956658;28;19931;-65
2023/01/04 10:39:55;;;;;;;;;;;;;;;-3.17;67.74;99481.00;4949781;28;19965;-65
2023/01/04 10:42:29;;;;;;;;;;;;;;;-3.13;67.53;99484.09;4954070;28;19930;-65
2023/01/04 10:45:02;;;;;;;;;;;;;;;-3.09;67.10;99485.41;4950602;28;20609;-66
2023/01/04 10:48:01;;;;;;;;;;;;;;;-3.07;67.14;99480.69;4949986;28;19939;-65
2023/01/04 10:51:02;;;;;;;;;;;;;;;-3.04;66.85;99476.78;4952942;28;19977;-65
2023/01/04 10:53:31;;;;;;;;;;;;;;;-3.06;66.94;99470.78;4955234;28;19959;-65
2023/01/04 10:56:01;;;;;;;;;;;;;;;-3.07;66.99;99467.28;4955382;28;19930;-65
2023/01/04 10:58:30;;;;;;;;;;;;;;;-3.13;66.83;99465.38;4956289;28;19931;-65
2023/01/04 11:00:59;;;;;;;;;;;;;;;-3.14;67.35;99467.25;4928755;28;19935;-66
2023/01/04 11:03:28;;;;;;;;;;;;;;;-3.12;67.48;99469.72;4952041;28;19930;-66
2023/01/04 11:05:57;;;;;;;;;;;;;;;-3.19;67.78;99458.13;4951987;28;19934;-65
2023/01/04 11:08:28;;;;;;;;;;;;;;;-3.08;67.84;99456.78;4954254;28;19930;-65
2023/01/04 11:10:56;;;;;;;;;;;;;;;-3.02;68.13;99469.41;4955371;28;19936;-69
2023/01/04 11:13:22;;;;;;;;;;;;;;;-2.94;68.11;99469.25;4952132;28;19930;-69
2023/01/04 11:15:49;;;;;;;;;;;;;;;-2.87;68.24;99466.63;4951640;28;20068;-68
2023/01/04 11:18:15;;;;;;;;;;;;;;;-2.82;68.22;99468.72;4951900;28;20306;-69
2023/01/04 11:20:41;;;;;;;;;;;;;;;-2.80;68.03;99461.31;4954277;28;20029;-69
2023/01/04 11:23:11;;;;;;;;;;;;;;;-2.79;68.17;99462.97;4954959;28;20469;-69
2023/01/04 11:25:41;;;;;;;;;;;;;;;-2.77;68.17;99468.94;4952250;28;20313;-66
2023/01/04 11:28:12;;;;;;;;;;;;;;;-2.77;68.32;99472.47;4956750;28;19961;-66
2023/01/04 11:30:44;;;;;;;;;;;;;;;-2.75;68.41;99472.25;4954441;28;20416;-66
2023/01/04 11:33:12;;;;;;;;;;;;;;;-2.76;68.37;99467.91;4952554;28;19940;-66
2023/01/04 11:35:39;;;;;;;;;;;;;;;-2.75;68.74;99481.13;4951518;28;20401;-66
2023/01/04 11:38:13;;;;;;;;;;;;;;;-2.82;68.76;99482.09;4954608;28;19937;-66
2023/01/04 11:40:40;;;;;;;;;;;;;;;-3.11;69.39;99483.91;4942285;28;19931;-65
2023/01/04 11:43:10;;;;;;;;;;;;;;;-3.43;70.77;99484.28;4953108;28;19937;-65
2023/01/04 11:45:54;;;;;;;;;;;;;;;-3.59;71.41;99485.34;4953436;28;19937;-66
2023/01/04 11:48:30;;;;;;;;;;;;;;;-3.64;72.01;99485.09;4950946;28;20046;-66
2023/01/04 11:50:56;;;;;;;;;;;;;;;-3.68;72.00;99486.47;4953835;28;19937;-65
2023/01/04 11:53:23;;;;;;;;;;;;;;;-3.74;72.12;99493.41;4953448;28;19930;-66
2023/01/04 11:55:50;;;;;;;;;;;;;;;-3.85;71.95;99495.53;4952396;28;19930;-66
2023/01/04 11:58:17;;;;;;;;;;;;;;;-3.94;71.46;99490.50;4955929;28;19937;-65
2023/01/04 12:00:49;;;;;;;;;;;;;;;-4.06;71.88;99495.47;4951199;28;19931;-65
2023/01/04 12:03:17;;;;;;;;;;;;;;;-4.14;72.02;99491.06;4951700;28;19937;-65
2023/01/04 12:05:43;;;;;;;;;;;;;;;-4.18;72.44;99509.31;4949772;28;19930;-65
2023/01/04 12:08:25;;;;;;;;;;;;;;;-4.21;72.41;99509.69;4954936;28;19937;-65
2023/01/04 12:10:52;;;;;;;;;;;;;;;-4.24;72.95;99502.03;4956330;28;19930;-65
2023/01/04 12:13:18;;;;;;;;;;;;;;;-4.31;73.41;99517.16;4954293;28;19965;-66
2023/01/04 12:15:47;;;;;;;;;;;;;;;-4.33;73.61;99506.63;4954945;28;19962;-68
2023/01/04 12:18:18;;;;;;;;;;;;;;;-4.36;73.23;99501.69;4957326;28;19953;-69
2023/01/04 12:20:44;;;;;;;;;;;;;;;-4.47;73.12;99505.63;4956764;28;19941;-67
2023/01/04 12:23:10;;;;;;;;;;;;;;;-4.62;73.24;99494.94;4954893;28;19934;-69
2023/01/04 12:25:44;;;;;;;;;;;;;;;-4.54;72.88;99487.88;4957796;28;19930;-69
2023/01/04 12:28:25;;;;;;;;;;;;;;;-4.49;72.91;99498.81;4950201;28;19930;-69
2023/01/04 12:30:52;;;;;;;;;;;;;;;-4.39;72.71;99503.88;4954837;28;19930;-69
2023/01/04 12:33:44;;;;;;;;;;;;;;;-4.33;72.65;99513.84;4954446;28;19985;-69
2023/01/04 12:36:11;;;;;;;;;;;;;;;-4.22;72.61;99502.66;4927671;28;19931;-69
2023/01/04 12:38:58;;;;;;;;;;;;;;;-4.07;72.32;99512.50;4952501;28;19930;-69
2023/01/04 12:42:02;;;;;;;;;;;;;;;-4.14;71.69;99507.09;4948591;28;20029;-65
2023/01/04 12:44:50;;;;;;;;;;;;;;;-4.21;71.96;99509.69;4944837;28;19940;-65
2023/01/04 12:50:17;;;;;;;;;;;;;;;-4.37;72.64;99499.19;4950583;28;19938;-65
2023/01/04 12:52:43;;;;;;;;;;;;;;;-4.12;72.61;99515.78;4948976;28;19930;-65
2023/01/04 12:55:42;;;;;;;;;;;;;;;-4.00;72.51;99498.22;4949751;28;19981;-66
2023/01/04 12:58:22;;;;;;;;;;;;;;;-3.91;72.19;99501.63;4949508;28;20061;-65
2023/01/04 13:01:08;;;;;;;;;;;;;;;-3.96;72.33;99509.38;4953722;28;20649;-65
2023/01/04 13:03:34;;;;;;;;;;;;;;;-3.97;72.49;99497.03;4951377;28;20287;-65
2023/01/04 13:06:03;;;;;;;;;;;;;;;-3.89;72.43;99494.28;4949728;28;19930;-69
2023/01/04 13:08:34;;;;;;;;;;;;;;;-3.79;72.25;99490.44;4953311;28;19930;-68
2023/01/04 13:11:00;;;;;;;;;;;;;;;-3.77;72.80;99496.44;4958062;28;20381;-69
2023/01/04 13:13:30;;;;;;;;;;;;;;;-3.77;73.19;99493.75;4611777;28;9999929;-69
2023/01/04 13:16:09;;;;;;;;;;;;;;;-3.75;73.22;99503.25;4957117;28;19930;-69
2023/01/04 13:18:36;;;;;;;;;;;;;;;-3.77;73.95;99504.44;4951195;28;19941;-69
2023/01/04 13:21:10;;;;;;;;;;;;;;;-3.71;74.14;99498.38;4935520;28;20719;-68
2023/01/04 13:23:36;;;;;;;;;;;;;;;-3.69;73.96;99501.69;4952517;28;19934;-65
2023/01/04 13:26:20;;;;;;;;;;;;;;;-3.74;74.97;99488.88;4950969;28;19935;-66
2023/01/04 13:28:46;;;;;;;;;;;;;;;-3.70;75.13;99486.66;4950535;28;19930;-65
2023/01/04 13:31:12;;;;;;;;;;;;;;;-3.70;75.72;99495.50;4954324;28;19969;-66
2023/01/04 13:33:38;;;;;;;;;;;;;;;-3.71;75.68;99504.53;4953321;28;19934;-65
2023/01/04 13:36:09;;;;;;;;;;;;;;;-3.73;75.80;99501.22;4951634;28;19930;-66
2023/01/04 13:38:38;;;;;;;;;;;;;;;-3.85;75.72;99500.88;4952031;28;19931;-65
2023/01/04 13:41:16;;;;;;;;;;;;;;;-3.96;75.58;99496.03;4954833;28;19937;-65